Time;durP1;ratioP1;P1;durP2;ratioP2;P2;SDS_P1;SDS_P2;PMS_P1;PMS_P2;Temp;Humidity;BMP_temperature;BMP_pressure;BME280_temperature;BME280_humidity;BME280_pressure;Samples;Min_cycle;Max_cycle;Signal;HPM_P1;HPM_P2
2023/12/24 00:02:05;;;;;;;15.32;3.53;;;9.90;99.90;;;;;;5006233;28;20054;-62
2023/12/24 00:04:31;;;;;;;14.77;2.72;;;9.80;99.90;;;;;;5000655;28;20629;-62
2023/12/24 00:06:57;;;;;;;17.55;2.85;;;10.00;99.90;;;;;;4996718;28;20533;-62
2023/12/24 00:09:23;;;;;;;16.63;3.47;;;9.90;99.90;;;;;;4998158;28;20788;-62
2023/12/24 00:11:48;;;;;;;19.70;3.65;;;10.00;99.90;;;;;;4993945;28;20037;-63
2023/12/24 00:14:14;;;;;;;16.50;3.00;;;9.90;99.90;;;;;;4997138;28;20398;-63
2023/12/24 00:16:43;;;;;;;15.82;3.60;;;10.00;99.90;;;;;;5000445;28;20567;-63
2023/12/24 00:19:09;;;;;;;14.60;3.17;;;9.90;99.90;;;;;;5000908;28;20556;-63
2023/12/24 00:21:35;;;;;;;16.38;3.67;;;9.90;99.90;;;;;;5000914;28;20054;-63
2023/12/24 00:24:00;;;;;;;15.70;3.70;;;10.00;99.90;;;;;;5000431;28;20061;-62
2023/12/24 00:26:26;;;;;;;17.73;3.35;;;9.90;99.90;;;;;;5001242;28;20050;-62
2023/12/24 00:28:52;;;;;;;9.82;3.15;;;10.00;99.90;;;;;;5000865;28;20073;-62
2023/12/24 00:31:18;;;;;;;9.43;2.53;;;10.00;99.90;;;;;;5000930;28;20042;-63
2023/12/24 00:33:43;;;;;;;10.95;3.17;;;9.90;99.90;;;;;;4998953;28;20116;-63
2023/12/24 00:36:09;;;;;;;13.52;2.95;;;10.00;99.90;;;;;;4988938;28;20129;-63
2023/12/24 00:38:35;;;;;;;12.43;2.85;;;9.90;99.90;;;;;;4999985;28;20074;-63
2023/12/24 00:41:01;;;;;;;12.60;3.15;;;9.90;99.90;;;;;;4998072;28;20414;-62
2023/12/24 00:43:26;;;;;;;11.43;3.65;;;9.90;99.90;;;;;;5000016;28;20093;-62
2023/12/24 00:45:52;;;;;;;21.20;3.55;;;9.90;99.90;;;;;;5001383;28;20088;-63
2023/12/24 00:48:18;;;;;;;21.48;3.30;;;10.00;99.90;;;;;;4999636;28;20147;-62
2023/12/24 00:50:43;;;;;;;14.73;2.50;;;10.00;99.90;;;;;;4998237;28;20524;-63
2023/12/24 00:53:09;;;;;;;13.60;2.97;;;9.90;99.90;;;;;;4999633;28;20044;-62
2023/12/24 00:55:35;;;;;;;20.05;3.72;;;10.00;99.90;;;;;;4998716;28;20049;-62
2023/12/24 00:58:01;;;;;;;18.20;2.90;;;9.90;99.90;;;;;;5003343;28;20335;-62
2023/12/24 01:00:26;;;;;;;16.25;3.35;;;10.00;99.90;;;;;;4987612;28;20745;-63
2023/12/24 01:02:52;;;;;;;12.20;2.72;;;10.00;99.90;;;;;;5001521;28;20129;-63
2023/12/24 01:05:18;;;;;;;15.48;3.38;;;9.90;99.90;;;;;;5003420;28;20480;-63
2023/12/24 01:07:44;;;;;;;16.27;3.00;;;9.90;99.90;;;;;;5003904;28;20042;-62
2023/12/24 01:10:10;;;;;;;15.80;2.90;;;9.90;99.90;;;;;;5002922;28;20120;-63
2023/12/24 01:12:37;;;;;;;17.15;3.60;;;9.80;99.90;;;;;;5001232;28;20508;-63
2023/12/24 01:15:04;;;;;;;14.38;2.75;;;9.90;99.90;;;;;;5003949;28;20077;-62
2023/12/24 01:17:29;;;;;;;13.35;3.08;;;9.80;99.90;;;;;;5003514;28;20049;-62
2023/12/24 01:19:56;;;;;;;17.35;3.30;;;9.90;99.90;;;;;;5003015;28;20050;-62
2023/12/24 01:22:22;;;;;;;13.35;3.00;;;9.80;99.90;;;;;;4994962;28;20360;-63
2023/12/24 01:24:48;;;;;;;16.48;3.40;;;9.90;99.90;;;;;;5003144;28;20042;-63
2023/12/24 01:27:14;;;;;;;15.27;2.88;;;9.90;99.90;;;;;;4993794;28;20342;-63
2023/12/24 01:29:39;;;;;;;13.80;3.10;;;9.80;99.90;;;;;;5003073;28;20042;-63
2023/12/24 01:32:05;;;;;;;14.45;3.13;;;9.90;99.90;;;;;;5004183;28;20034;-63
2023/12/24 01:34:31;;;;;;;18.08;3.42;;;10.00;99.90;;;;;;5000175;28;20053;-63
2023/12/24 01:36:57;;;;;;;13.27;2.60;;;9.90;99.90;;;;;;4997748;28;20453;-62
2023/12/24 01:39:23;;;;;;;12.68;2.35;;;9.90;99.90;;;;;;5003720;28;20137;-62
2023/12/24 01:41:49;;;;;;;13.88;2.60;;;9.90;99.90;;;;;;5003705;28;20046;-62
2023/12/24 01:44:14;;;;;;;15.63;3.20;;;9.90;99.90;;;;;;4992400;28;20045;-63
2023/12/24 01:46:40;;;;;;;12.77;3.03;;;10.00;99.90;;;;;;4989784;28;20046;-62
2023/12/24 01:49:07;;;;;;;8.57;1.98;;;9.90;99.90;;;;;;4990902;28;20248;-63
2023/12/24 01:51:34;;;;;;;8.95;2.53;;;9.80;99.90;;;;;;4999401;28;20511;-63
2023/12/24 01:54:01;;;;;;;11.27;3.00;;;9.90;99.90;;;;;;4983395;28;20037;-63
2023/12/24 01:56:27;;;;;;;9.25;2.22;;;9.80;99.90;;;;;;4993728;28;20048;-63
2023/12/24 01:58:53;;;;;;;12.93;2.90;;;9.90;99.90;;;;;;4999363;28;20046;-62
2023/12/24 02:01:20;;;;;;;13.27;2.42;;;9.90;99.90;;;;;;4993920;28;20097;-62
2023/12/24 02:03:45;;;;;;;10.15;2.00;;;9.80;99.90;;;;;;4984447;28;20104;-63
2023/12/24 02:06:14;;;;;;;10.77;1.90;;;9.80;99.90;;;;;;4998053;28;20501;-63
2023/12/24 02:08:40;;;;;;;6.60;2.10;;;9.80;99.90;;;;;;5003246;28;20491;-63
2023/12/24 02:11:06;;;;;;;12.38;2.67;;;9.90;99.90;;;;;;5001061;28;20178;-63
2023/12/24 02:13:33;;;;;;;10.65;2.55;;;9.90;99.90;;;;;;5003525;28;20247;-63
2023/12/24 02:16:02;;;;;;;8.25;1.90;;;9.90;99.90;;;;;;4998557;28;20080;-63
2023/12/24 02:18:28;;;;;;;10.98;3.33;;;9.80;99.90;;;;;;4996960;28;20042;-63
2023/12/24 02:21:04;;;;;;;9.73;2.40;;;9.90;99.90;;;;;;4997192;28;20540;-63
2023/12/24 02:23:31;;;;;;;10.25;2.60;;;10.00;99.90;;;;;;4996270;28;20097;-65
2023/12/24 02:26:01;;;;;;;11.27;3.00;;;9.80;99.90;;;;;;4994512;28;20038;-64
2023/12/24 02:28:28;;;;;;;14.88;3.08;;;10.00;99.90;;;;;;4999581;28;20149;-63
2023/12/24 02:31:09;;;;;;;13.70;3.10;;;10.00;99.90;;;;;;4998365;28;20216;-64
2023/12/24 02:33:40;;;;;;;16.88;3.75;;;10.00;99.90;;;;;;4999293;28;20057;-63
2023/12/24 02:36:11;;;;;;;12.75;3.05;;;9.80;99.90;;;;;;4995365;28;20048;-64
2023/12/24 02:38:37;;;;;;;10.73;3.00;;;10.00;99.90;;;;;;4998912;28;20045;-63
2023/12/24 02:41:04;;;;;;;12.95;3.97;;;9.90;99.90;;;;;;5001159;28;20045;-62
2023/12/24 02:43:31;;;;;;;14.88;2.92;;;9.90;99.90;;;;;;4998487;28;20460;-62
2023/12/24 02:45:57;;;;;;;13.90;2.92;;;9.90;99.90;;;;;;4997149;28;20468;-63
2023/12/24 02:48:23;;;;;;;13.43;3.25;;;9.90;99.90;;;;;;4997103;28;20046;-63
2023/12/24 02:50:48;;;;;;;14.60;3.30;;;9.90;99.90;;;;;;4997960;28;20115;-63
2023/12/24 02:53:14;;;;;;;19.42;3.55;;;9.90;99.90;;;;;;4999999;28;20546;-62
2023/12/24 02:55:40;;;;;;;15.88;4.03;;;9.90;99.90;;;;;;4998101;28;20042;-63
2023/12/24 02:58:05;;;;;;;12.80;3.25;;;9.90;99.90;;;;;;4997481;28;20208;-63
2023/12/24 03:00:31;;;;;;;16.95;4.43;;;9.90;99.90;;;;;;4994381;28;20050;-63
2023/12/24 03:02:57;;;;;;;8.35;2.55;;;10.00;99.90;;;;;;5002248;28;20552;-63
2023/12/24 03:05:23;;;;;;;9.25;3.03;;;10.10;99.90;;;;;;4996252;28;20043;-63
2023/12/24 03:07:48;;;;;;;9.82;2.53;;;10.00;99.90;;;;;;4998879;28;20128;-63
2023/12/24 03:10:14;;;;;;;8.00;2.58;;;9.90;99.90;;;;;;4990158;28;20046;-63
2023/12/24 03:12:40;;;;;;;14.23;2.90;;;10.00;99.90;;;;;;5002023;28;20116;-63
2023/12/24 03:15:07;;;;;;;11.95;2.20;;;10.10;99.90;;;;;;5000764;28;20111;-63
2023/12/24 03:17:33;;;;;;;18.23;3.53;;;10.00;99.90;;;;;;5000063;28;20041;-63
2023/12/24 03:19:58;;;;;;;10.93;2.10;;;10.00;99.90;;;;;;5002073;28;20104;-62
2023/12/24 03:22:24;;;;;;;12.60;2.33;;;10.10;99.90;;;;;;4995012;28;20797;-62
2023/12/24 03:24:51;;;;;;;10.93;1.98;;;10.10;99.90;;;;;;5001669;28;20078;-62
2023/12/24 03:27:18;;;;;;;16.88;2.85;;;10.20;99.90;;;;;;5001498;28;20081;-63
2023/12/24 03:29:43;;;;;;;12.35;2.08;;;10.10;99.90;;;;;;5001648;28;20050;-63
2023/12/24 03:32:10;;;;;;;11.45;2.58;;;10.00;99.90;;;;;;5002085;28;20060;-63
2023/12/24 03:34:36;;;;;;;9.10;2.25;;;10.10;99.90;;;;;;4999140;28;20141;-63
2023/12/24 03:37:02;;;;;;;7.97;1.90;;;10.10;99.90;;;;;;4998802;28;20361;-63
2023/12/24 03:39:28;;;;;;;8.40;1.88;;;10.10;99.90;;;;;;5000981;28;20172;-62
2023/12/24 03:41:53;;;;;;;5.40;1.73;;;10.10;99.90;;;;;;4996486;28;20587;-62
2023/12/24 03:44:19;;;;;;;6.75;1.58;;;10.20;99.90;;;;;;4995756;28;20053;-62
2023/12/24 03:46:45;;;;;;;7.68;1.83;;;10.10;99.90;;;;;;4974988;28;20034;-62
2023/12/24 03:49:11;;;;;;;4.65;1.60;;;10.20;99.90;;;;;;4994888;28;20493;-62
2023/12/24 03:51:36;;;;;;;5.28;1.60;;;10.20;99.90;;;;;;4991382;28;20073;-62
2023/12/24 03:54:02;;;;;;;5.03;1.25;;;10.10;99.90;;;;;;4999614;28;20136;-62
2023/12/24 03:56:28;;;;;;;3.30;1.30;;;10.10;99.90;;;;;;4999594;28;20113;-62
2023/12/24 03:58:54;;;;;;;3.67;1.13;;;10.30;99.90;;;;;;4997591;28;20037;-62
2023/12/24 04:01:26;;;;;;;3.63;1.17;;;10.30;99.90;;;;;;4995166;28;20065;-63
2023/12/24 04:03:52;;;;;;;4.80;1.20;;;10.20;99.90;;;;;;5000928;28;20038;-62
2023/12/24 04:06:18;;;;;;;5.28;1.27;;;10.20;99.90;;;;;;4999375;28;20089;-61
2023/12/24 04:08:44;;;;;;;5.22;1.20;;;10.20;99.90;;;;;;4997421;28;20042;-62
2023/12/24 04:11:17;;;;;;;3.92;1.10;;;10.30;99.90;;;;;;4992629;28;20050;-62
2023/12/24 04:13:43;;;;;;;4.60;1.05;;;10.30;99.90;;;;;;4999902;28;20050;-62
2023/12/24 04:16:09;;;;;;;1.58;0.68;;;10.30;99.90;;;;;;4990937;28;20532;-62
2023/12/24 04:18:35;;;;;;;3.13;1.48;;;10.40;99.90;;;;;;4996812;28;20833;-61
2023/12/24 04:21:02;;;;;;;1.60;0.90;;;10.30;99.90;;;;;;4999158;28;20050;-62
2023/12/24 04:23:27;;;;;;;2.47;1.00;;;10.30;99.90;;;;;;4992262;28;20622;-62
2023/12/24 04:25:53;;;;;;;1.95;1.10;;;10.20;99.90;;;;;;4992448;28;20038;-63
2023/12/24 04:28:19;;;;;;;4.95;0.88;;;10.40;99.90;;;;;;5000176;28;20049;-63
2023/12/24 04:30:45;;;;;;;2.63;0.82;;;10.30;99.90;;;;;;4999391;28;20492;-62
2023/12/24 04:33:10;;;;;;;2.05;0.73;;;10.20;99.90;;;;;;4994548;28;20049;-62
2023/12/24 04:35:36;;;;;;;2.33;1.75;;;10.40;99.90;;;;;;5000852;28;20054;-63
2023/12/24 04:38:02;;;;;;;3.58;0.85;;;10.30;99.90;;;;;;4994080;28;20049;-62
2023/12/24 04:40:28;;;;;;;3.38;0.98;;;10.50;99.90;;;;;;5004302;28;20323;-62
2023/12/24 04:42:54;;;;;;;2.70;0.90;;;10.30;99.90;;;;;;5000881;28;20531;-62
2023/12/24 04:45:20;;;;;;;2.67;0.93;;;10.30;99.90;;;;;;5003885;28;20579;-63
2023/12/24 04:47:46;;;;;;;6.10;1.17;;;10.50;99.90;;;;;;5003825;28;20037;-62
2023/12/24 04:50:12;;;;;;;2.53;0.93;;;10.40;99.90;;;;;;4997807;28;20049;-62
2023/12/24 04:52:38;;;;;;;8.10;1.60;;;10.50;99.90;;;;;;5004354;28;20053;-63
2023/12/24 04:55:04;;;;;;;5.43;1.45;;;10.40;99.90;;;;;;4998801;28;20042;-62
2023/12/24 04:57:31;;;;;;;4.38;1.20;;;10.30;99.90;;;;;;4992667;28;20101;-62
2023/12/24 04:59:57;;;;;;;2.88;1.08;;;10.30;99.90;;;;;;4999082;28;20082;-63
2023/12/24 05:02:23;;;;;;;5.35;1.17;;;10.50;99.90;;;;;;5003652;28;20545;-62
2023/12/24 05:04:49;;;;;;;4.32;1.30;;;10.50;99.90;;;;;;5001930;28;20038;-62
2023/12/24 05:07:15;;;;;;;4.45;1.40;;;10.40;99.90;;;;;;4997655;28;20042;-62
2023/12/24 05:09:42;;;;;;;5.20;1.40;;;10.60;99.90;;;;;;4996600;28;20537;-62
2023/12/24 05:12:08;;;;;;;7.47;1.80;;;10.50;99.90;;;;;;4997335;28;20038;-63
2023/12/24 05:14:34;;;;;;;4.25;1.30;;;10.60;99.90;;;;;;4999115;28;20037;-62
2023/12/24 05:17:02;;;;;;;7.07;1.67;;;10.40;99.90;;;;;;5002663;28;20077;-62
2023/12/24 05:19:28;;;;;;;13.73;2.50;;;10.40;99.90;;;;;;5002088;28;20096;-62
2023/12/24 05:21:54;;;;;;;7.63;2.00;;;10.40;99.90;;;;;;4997672;28;20045;-62
2023/12/24 05:24:20;;;;;;;8.75;2.08;;;10.60;99.90;;;;;;4998371;28;20074;-62
2023/12/24 05:26:46;;;;;;;9.95;2.40;;;10.40;99.90;;;;;;5002349;28;20153;-62
2023/12/24 05:29:12;;;;;;;7.72;2.00;;;10.40;99.90;;;;;;5000840;28;20041;-62
2023/12/24 05:31:38;;;;;;;9.90;2.47;;;10.40;99.90;;;;;;4992162;28;20038;-62
2023/12/24 05:34:04;;;;;;;9.55;2.60;;;10.60;99.90;;;;;;4997497;28;20449;-62
2023/12/24 05:36:32;;;;;;;11.02;2.63;;;10.50;99.90;;;;;;4995963;28;20058;-63
2023/12/24 05:38:58;;;;;;;9.18;2.25;;;10.60;99.90;;;;;;5003440;28;20038;-63
2023/12/24 05:41:24;;;;;;;10.35;3.35;;;10.50;99.90;;;;;;4998977;28;20046;-62
2023/12/24 05:43:50;;;;;;;11.95;3.00;;;10.60;99.90;;;;;;5001200;28;20555;-62
2023/12/24 05:46:16;;;;;;;10.45;2.50;;;10.60;99.90;;;;;;5002335;28;20100;-63
2023/12/24 05:48:42;;;;;;;9.32;2.63;;;10.80;99.90;;;;;;4997037;28;20054;-62
2023/12/24 05:51:08;;;;;;;10.95;3.40;;;10.60;99.90;;;;;;5000839;28;20092;-62
2023/12/24 05:53:34;;;;;;;12.45;3.05;;;10.60;99.90;;;;;;5002428;28;20096;-62
2023/12/24 05:55:59;;;;;;;11.52;2.95;;;10.70;99.90;;;;;;4996154;28;20042;-62
2023/12/24 05:58:25;;;;;;;13.07;3.25;;;10.80;99.90;;;;;;4995311;28;20053;-62
2023/12/24 06:00:52;;;;;;;21.08;3.35;;;10.80;99.90;;;;;;4999248;28;20469;-62
2023/12/24 06:03:18;;;;;;;20.27;3.53;;;10.70;99.90;;;;;;5002100;28;20052;-63
2023/12/24 06:05:44;;;;;;;16.05;3.60;;;10.80;99.90;;;;;;4999562;28;20041;-63
2023/12/24 06:08:12;;;;;;;21.30;3.72;;;10.80;99.90;;;;;;4999331;28;20162;-62
2023/12/24 06:10:38;;;;;;;16.60;3.50;;;10.60;99.90;;;;;;5000455;28;20117;-63
2023/12/24 06:13:04;;;;;;;23.63;3.20;;;10.80;99.90;;;;;;4999842;28;20041;-63
2023/12/24 06:15:30;;;;;;;19.10;3.35;;;10.70;99.90;;;;;;4999432;28;20089;-63
2023/12/24 06:17:56;;;;;;;19.05;3.33;;;10.60;99.90;;;;;;4995610;28;20816;-63
2023/12/24 06:20:22;;;;;;;16.25;3.40;;;10.60;99.90;;;;;;4993506;28;20042;-63
2023/12/24 06:22:47;;;;;;;17.38;3.17;;;10.70;99.90;;;;;;5001805;28;20527;-63
2023/12/24 06:25:13;;;;;;;19.50;3.85;;;10.80;99.90;;;;;;4992523;28;20065;-63
2023/12/24 06:27:39;;;;;;;25.77;3.80;;;10.90;99.90;;;;;;4992619;28;20077;-62
2023/12/24 06:30:05;;;;;;;19.63;3.80;;;10.90;99.90;;;;;;4997825;28;20038;-63
2023/12/24 06:32:31;;;;;;;18.73;3.75;;;10.90;99.90;;;;;;4998385;28;20046;-63
2023/12/24 06:34:57;;;;;;;17.63;2.97;;;10.80;99.90;;;;;;5000538;28;20501;-63
2023/12/24 06:37:23;;;;;;;21.33;3.78;;;10.80;99.90;;;;;;4996503;28;20050;-63
2023/12/24 06:39:49;;;;;;;14.13;2.83;;;10.70;99.90;;;;;;4997050;28;20096;-63
2023/12/24 06:42:15;;;;;;;21.70;3.35;;;10.90;99.90;;;;;;4999902;28;20037;-62
2023/12/24 06:44:43;;;;;;;15.82;2.90;;;10.80;99.90;;;;;;5002162;28;20418;-63
2023/12/24 06:47:09;;;;;;;18.10;3.28;;;10.80;99.90;;;;;;5002252;28;20041;-62
2023/12/24 06:49:35;;;;;;;17.25;2.95;;;10.90;99.90;;;;;;4996697;28;20056;-63
2023/12/24 06:52:00;;;;;;;13.88;3.45;;;10.80;99.90;;;;;;4996349;28;20129;-63
2023/12/24 06:54:26;;;;;;;16.35;3.13;;;10.90;99.90;;;;;;5000231;28;20135;-63
2023/12/24 06:56:52;;;;;;;17.73;3.38;;;10.80;99.90;;;;;;4985537;28;20034;-62
2023/12/24 06:59:18;;;;;;;16.70;2.72;;;10.80;99.90;;;;;;4997838;28;20038;-62
2023/12/24 07:01:44;;;;;;;21.90;3.42;;;10.90;99.90;;;;;;4999398;28;20115;-63
2023/12/24 07:04:10;;;;;;;15.43;3.20;;;11.00;99.90;;;;;;5001359;28;20045;-63
2023/12/24 07:06:36;;;;;;;12.52;3.08;;;10.80;99.90;;;;;;4998382;28;20589;-63
2023/12/24 07:09:01;;;;;;;15.60;2.58;;;10.80;99.90;;;;;;4998218;28;20033;-63
2023/12/24 07:11:27;;;;;;;20.15;3.50;;;10.90;99.90;;;;;;4995216;28;20084;-62
2023/12/24 07:13:53;;;;;;;22.33;4.05;;;11.00;99.90;;;;;;4990913;28;20041;-63
2023/12/24 07:16:19;;;;;;;17.17;2.92;;;10.80;99.90;;;;;;5000715;28;20060;-63
2023/12/24 07:18:44;;;;;;;17.98;4.15;;;11.10;99.90;;;;;;4996207;28;20381;-63
2023/12/24 07:21:10;;;;;;;20.35;3.42;;;11.00;99.90;;;;;;4994729;28;20052;-63
2023/12/24 07:23:37;;;;;;;17.67;3.30;;;11.10;99.90;;;;;;4993609;28;20042;-62
2023/12/24 07:26:05;;;;;;;21.75;4.18;;;11.00;99.90;;;;;;4999679;28;20080;-63
2023/12/24 07:28:30;;;;;;;9.85;2.58;;;10.90;99.90;;;;;;4995725;28;20869;-63
2023/12/24 07:30:56;;;;;;;17.15;3.63;;;11.10;99.90;;;;;;4989207;28;20148;-63
2023/12/24 07:33:22;;;;;;;18.50;3.35;;;11.10;99.90;;;;;;4996817;28;20045;-63
2023/12/24 07:35:47;;;;;;;17.08;3.42;;;11.20;99.90;;;;;;5001130;28;20501;-63
2023/12/24 07:38:13;;;;;;;12.88;3.58;;;11.10;99.90;;;;;;4997968;28;20730;-63
2023/12/24 07:40:39;;;;;;;19.75;3.20;;;11.20;99.90;;;;;;4999393;28;20074;-63
2023/12/24 07:43:04;;;;;;;18.35;3.22;;;11.10;99.90;;;;;;4999401;28;20673;-63
2023/12/24 07:45:30;;;;;;;15.32;2.80;;;11.20;99.90;;;;;;4992321;28;20042;-63
2023/12/24 07:47:56;;;;;;;17.67;3.58;;;11.10;99.90;;;;;;4988604;28;20103;-62
2023/12/24 07:50:22;;;;;;;20.40;3.70;;;11.20;99.90;;;;;;4996070;28;20093;-63
2023/12/24 07:52:47;;;;;;;13.73;3.20;;;11.10;99.90;;;;;;5001574;28;20154;-63
2023/12/24 07:55:13;;;;;;;17.40;3.28;;;11.20;99.90;;;;;;4999127;28;20038;-62
2023/12/24 07:57:39;;;;;;;19.40;3.33;;;11.20;99.90;;;;;;5000506;28;20074;-63
2023/12/24 08:00:06;;;;;;;15.80;3.67;;;11.20;99.90;;;;;;4990158;28;20037;-63
2023/12/24 08:02:33;;;;;;;17.95;4.13;;;11.20;99.90;;;;;;5001248;28;20053;-63
2023/12/24 08:04:58;;;;;;;13.15;3.20;;;11.20;99.90;;;;;;5001079;28;20053;-63
2023/12/24 08:07:24;;;;;;;13.90;3.58;;;11.20;99.90;;;;;;4984521;28;20057;-63
2023/12/24 08:09:50;;;;;;;16.25;3.08;;;11.20;99.90;;;;;;5005326;28;20049;-64
2023/12/24 08:12:16;;;;;;;17.33;4.20;;;11.30;99.90;;;;;;5004522;28;20053;-63
2023/12/24 08:14:42;;;;;;;15.95;3.40;;;11.20;99.90;;;;;;5002412;28;20041;-64
2023/12/24 08:17:08;;;;;;;17.38;3.38;;;11.40;99.90;;;;;;5002431;28;20057;-63
2023/12/24 08:19:34;;;;;;;13.95;3.55;;;11.40;99.90;;;;;;4996376;28;20536;-63
2023/12/24 08:21:59;;;;;;;18.00;3.53;;;11.20;99.90;;;;;;5000314;28;20038;-64
2023/12/24 08:24:25;;;;;;;17.73;3.40;;;11.30;99.90;;;;;;5003349;28;20501;-65
2023/12/24 08:26:51;;;;;;;17.95;4.07;;;11.20;99.90;;;;;;5000739;28;20046;-63
2023/12/24 08:29:17;;;;;;;16.30;3.55;;;11.40;99.90;;;;;;5004221;28;20345;-63
2023/12/24 08:31:42;;;;;;;18.75;3.65;;;11.30;99.90;;;;;;5003210;28;20037;-63
2023/12/24 08:34:08;;;;;;;23.55;3.90;;;11.40;99.90;;;;;;5002701;28;20033;-63
2023/12/24 08:36:34;;;;;;;16.52;3.67;;;11.40;99.90;;;;;;5003774;28;20049;-64
2023/12/24 08:39:00;;;;;;;19.33;3.63;;;11.40;99.90;;;;;;4994189;28;20872;-63
2023/12/24 08:41:26;;;;;;;19.23;4.38;;;11.30;99.90;;;;;;4990050;28;20096;-63
2023/12/24 08:43:52;;;;;;;23.20;4.18;;;11.40;99.90;;;;;;4990635;28;20030;-63
2023/12/24 08:46:17;;;;;;;24.67;4.13;;;11.30;99.90;;;;;;4993130;28;20409;-63
2023/12/24 08:48:43;;;;;;;15.32;3.10;;;11.30;99.90;;;;;;5000909;28;20053;-64
2023/12/24 08:51:09;;;;;;;30.48;4.13;;;11.30;99.90;;;;;;5001660;28;20056;-63
2023/12/24 08:53:35;;;;;;;22.15;4.05;;;11.50;99.90;;;;;;5003909;28;20547;-63
2023/12/24 08:56:00;;;;;;;19.83;3.72;;;11.50;99.90;;;;;;5004277;28;20120;-63
2023/12/24 08:58:27;;;;;;;24.75;3.88;;;11.40;99.90;;;;;;5002780;28;20041;-63
2023/12/24 09:00:53;;;;;;;22.55;4.15;;;11.60;99.90;;;;;;4992876;28;20353;-64
2023/12/24 09:03:19;;;;;;;17.15;3.72;;;11.50;99.90;;;;;;5001520;28;20038;-63
2023/12/24 09:05:45;;;;;;;17.23;3.13;;;11.60;99.90;;;;;;5001019;28;20046;-64
2023/12/24 09:08:10;;;;;;;19.15;3.17;;;11.50;99.90;;;;;;4992691;28;20148;-63
2023/12/24 09:10:36;;;;;;;15.73;3.47;;;11.40;99.90;;;;;;4994458;28;20078;-64
2023/12/24 09:13:02;;;;;;;20.15;3.60;;;11.60;99.90;;;;;;4999398;28;20407;-63
2023/12/24 09:15:28;;;;;;;15.55;3.35;;;11.60;99.90;;;;;;4996407;28;20054;-64
2023/12/24 09:17:54;;;;;;;17.45;3.80;;;11.50;99.90;;;;;;5001633;28;20346;-63
2023/12/24 09:20:19;;;;;;;16.45;3.33;;;11.50;99.90;;;;;;5003120;28;20038;-63
2023/12/24 09:22:45;;;;;;;20.90;3.72;;;11.60;99.90;;;;;;5000094;28;20509;-64
2023/12/24 09:25:11;;;;;;;12.02;3.03;;;11.70;99.90;;;;;;4997944;28;20100;-64
2023/12/24 09:27:37;;;;;;;23.75;3.70;;;11.60;99.90;;;;;;4990939;28;20136;-64
2023/12/24 09:30:04;;;;;;;16.95;3.30;;;11.50;99.90;;;;;;4997445;28;20505;-63
2023/12/24 09:32:31;;;;;;;19.58;3.20;;;11.70;99.90;;;;;;5004462;28;20125;-63
2023/12/24 09:34:57;;;;;;;11.82;3.08;;;11.70;99.90;;;;;;4992037;28;20042;-63
2023/12/24 09:37:24;;;;;;;14.93;2.80;;;11.80;99.90;;;;;;4999066;28;20042;-63
2023/12/24 09:39:52;;;;;;;19.77;2.78;;;11.70;99.90;;;;;;5001529;28;20044;-63
2023/12/24 09:42:18;;;;;;;18.02;3.20;;;11.80;99.90;;;;;;4978609;28;20045;-63
2023/12/24 09:44:45;;;;;;;19.25;3.65;;;11.90;99.90;;;;;;4999769;28;20044;-63
2023/12/24 09:47:10;;;;;;;16.05;3.22;;;11.90;99.90;;;;;;4993291;28;20030;-63
2023/12/24 09:49:36;;;;;;;15.02;2.60;;;11.80;99.90;;;;;;4996887;28;20527;-63
2023/12/24 09:52:02;;;;;;;18.73;2.97;;;12.00;99.90;;;;;;4996393;28;20151;-64
2023/12/24 09:54:28;;;;;;;17.83;3.10;;;12.00;99.90;;;;;;5000481;28;20049;-63
2023/12/24 09:56:55;;;;;;;12.30;2.80;;;12.00;99.90;;;;;;4999066;28;20106;-63
2023/12/24 09:59:21;;;;;;;16.70;3.78;;;12.10;99.90;;;;;;4986010;28;20046;-63
2023/12/24 10:01:47;;;;;;;17.08;3.55;;;11.90;99.90;;;;;;4999472;28;20038;-63
2023/12/24 10:04:13;;;;;;;16.23;2.78;;;12.10;99.90;;;;;;5002121;28;20512;-63
2023/12/24 10:06:56;;;;;;;21.60;3.55;;;12.10;99.90;;;;;;4992692;28;20042;-63
2023/12/24 10:09:24;;;;;;;19.20;3.42;;;12.00;99.90;;;;;;4998548;28;20050;-64
2023/12/24 10:12:04;;;;;;;19.60;3.40;;;12.10;99.90;;;;;;5003206;28;20045;-63
2023/12/24 10:14:29;;;;;;;11.60;2.30;;;11.90;99.90;;;;;;4998613;28;20045;-63
2023/12/24 10:16:55;;;;;;;12.60;2.40;;;12.00;99.90;;;;;;4998727;28;20048;-63
2023/12/24 10:19:25;;;;;;;14.98;2.63;;;11.90;99.90;;;;;;4999034;28;20055;-63
2023/12/24 10:22:00;;;;;;;16.42;2.90;;;12.00;99.90;;;;;;5001794;28;20141;-64
2023/12/24 10:24:29;;;;;;;21.33;2.83;;;12.00;99.90;;;;;;5002823;28;20041;-63
2023/12/24 10:27:11;;;;;;;16.77;2.80;;;12.10;99.90;;;;;;4999640;28;20041;-63
2023/12/24 10:29:41;;;;;;;12.40;2.67;;;12.20;99.90;;;;;;5003346;28;20473;-63
2023/12/24 10:32:10;;;;;;;18.63;4.00;;;12.20;99.90;;;;;;4999295;28;20093;-63
2023/12/24 10:34:37;;;;;;;12.13;2.78;;;12.10;99.90;;;;;;5000273;28;20049;-63
2023/12/24 10:37:26;;;;;;;12.90;2.92;;;12.30;99.90;;;;;;5002287;28;20045;-63
2023/12/24 10:39:51;;;;;;;15.45;2.97;;;12.30;99.90;;;;;;4991595;28;20038;-63
2023/12/24 10:42:17;;;;;;;18.02;3.10;;;12.30;99.90;;;;;;4996673;28;20126;-64
2023/12/24 10:44:43;;;;;;;11.35;1.98;;;12.40;99.90;;;;;;4999375;28;20138;-63
2023/12/24 10:47:09;;;;;;;15.13;3.05;;;12.30;99.90;;;;;;4993017;28;20129;-63
2023/12/24 10:49:44;;;;;;;13.57;3.00;;;12.40;99.90;;;;;;5099964;27;20992;-65
2023/12/24 10:52:10;;;;;;;11.38;2.40;;;12.50;99.90;;;;;;5100465;28;20131;-64
2023/12/24 10:54:36;;;;;;;14.20;2.38;;;12.40;99.90;;;;;;5099503;28;20036;-62
2023/12/24 10:57:23;;;;;;;7.05;1.90;;;12.40;99.90;;;;;;5096948;28;20036;-64
2023/12/24 11:00:11;;;;;;;9.75;2.08;;;12.50;99.90;;;;;;5099480;28;20077;-64
2023/12/24 11:02:37;;;;;;;13.32;2.13;;;12.60;99.90;;;;;;5096612;28;20074;-64
2023/12/24 11:05:05;;;;;;;14.63;2.20;;;12.60;99.90;;;;;;5095479;28;20370;-64
2023/12/24 11:07:34;;;;;;;11.20;2.72;;;12.60;99.90;;;;;;5098339;28;20115;-63
2023/12/24 11:10:07;;;;;;;7.10;1.75;;;12.70;99.90;;;;;;5098681;28;20542;-62
2023/12/24 11:12:38;;;;;;;19.50;3.22;;;12.60;99.90;;;;;;5091138;28;20040;-62
2023/12/24 11:15:08;;;;;;;13.43;2.20;;;12.60;99.90;;;;;;5096816;28;20044;-62
2023/12/24 11:17:34;;;;;;;7.75;2.08;;;12.70;99.90;;;;;;5096841;28;20039;-63
2023/12/24 11:20:20;;;;;;;9.13;2.05;;;12.60;99.90;;;;;;5084117;28;20059;-63
2023/12/24 11:23:04;;;;;;;14.75;2.33;;;12.60;99.90;;;;;;5098646;28;20734;-62
2023/12/24 11:25:37;;;;;;;11.93;2.40;;;12.60;99.90;;;;;;5099397;28;20365;-63
2023/12/24 11:28:04;;;;;;;12.80;2.05;;;12.50;99.90;;;;;;5098459;28;20198;-62
2023/12/24 11:30:50;;;;;;;14.38;2.53;;;12.60;99.90;;;;;;5097970;28;20043;-62
2023/12/24 11:33:28;;;;;;;13.68;2.30;;;12.60;99.90;;;;;;5093165;28;20550;-62
2023/12/24 11:35:55;;;;;;;15.20;2.30;;;12.50;99.90;;;;;;5097594;28;20042;-62
2023/12/24 11:38:33;;;;;;;11.48;2.33;;;12.70;99.90;;;;;;5095233;28;20097;-62
2023/12/24 11:41:12;;;;;;;18.70;2.58;;;12.50;99.90;;;;;;5091636;28;20414;-62
2023/12/24 11:43:41;;;;;;;13.43;2.33;;;12.60;99.90;;;;;;5096724;28;20050;-62
2023/12/24 11:46:07;;;;;;;16.42;2.95;;;12.70;99.90;;;;;;5098360;28;20043;-63
2023/12/24 11:48:35;;;;;;;17.08;2.47;;;12.60;99.90;;;;;;5098261;28;20134;-63
2023/12/24 11:51:09;;;;;;;10.68;1.88;;;12.60;99.90;;;;;;5094465;28;20039;-62
2023/12/24 11:53:39;;;;;;;14.55;3.67;;;12.60;99.90;;;;;;5097794;28;20075;-62
2023/12/24 11:56:18;;;;;;;8.60;2.28;;;12.70;99.90;;;;;;5097779;28;20516;-62
2023/12/24 11:58:50;;;;;;;19.65;2.33;;;12.70;99.90;;;;;;5097208;28;20444;-62
2023/12/24 12:01:26;;;;;;;10.75;2.25;;;12.70;99.90;;;;;;5084252;28;20096;-61
2023/12/24 12:03:59;;;;;;;13.60;3.25;;;12.80;99.90;;;;;;5077777;28;20477;-63
2023/12/24 12:06:26;;;;;;;11.00;2.30;;;12.80;99.90;;;;;;5087075;28;20148;-63
2023/12/24 12:08:52;;;;;;;12.50;2.67;;;12.70;99.90;;;;;;5082500;28;20043;-61
2023/12/24 12:11:18;;;;;;;15.15;2.90;;;12.70;99.90;;;;;;5080212;28;20044;-63
2023/12/24 12:13:44;;;;;;;9.77;2.33;;;12.70;99.90;;;;;;5084648;28;20047;-62
2023/12/24 12:16:11;;;;;;;10.52;2.53;;;12.80;99.90;;;;;;5081348;28;20037;-62
2023/12/24 12:18:37;;;;;;;15.65;2.67;;;12.80;99.90;;;;;;5085223;28;20076;-63
2023/12/24 12:21:03;;;;;;;14.73;2.35;;;12.70;99.90;;;;;;5084163;28;20082;-63
2023/12/24 12:23:29;;;;;;;16.52;2.17;;;12.80;99.90;;;;;;5082157;28;20106;-63
2023/12/24 12:25:55;;;;;;;15.68;2.67;;;12.90;99.90;;;;;;5086847;28;20432;-62
2023/12/24 12:28:21;;;;;;;15.68;3.42;;;12.80;99.90;;;;;;5075581;28;20044;-63
2023/12/24 12:30:46;;;;;;;16.50;3.80;;;12.70;99.90;;;;;;5089939;28;20504;-64
2023/12/24 12:33:12;;;;;;;16.23;3.17;;;12.80;99.90;;;;;;5082105;28;20040;-63
2023/12/24 12:35:38;;;;;;;18.55;2.70;;;12.70;99.90;;;;;;5084546;28;20040;-63
2023/12/24 12:38:04;;;;;;;12.05;2.50;;;12.80;99.90;;;;;;5084360;28;20181;-64
2023/12/24 12:40:30;;;;;;;14.40;2.13;;;12.90;99.90;;;;;;5084008;28;20050;-63